createdAt,value
2022-08-11T00:01:26.201Z,14.61
2022-08-11T00:03:58.955Z,14.61
2022-08-11T00:06:31.489Z,14.61
2022-08-11T00:09:02.243Z,14.59
2022-08-11T00:11:41.198Z,14.60
2022-08-11T00:14:37.197Z,14.61
2022-08-11T00:17:09.491Z,14.59
2022-08-11T00:20:13.697Z,14.59
2022-08-11T00:22:33.178Z,14.56
2022-08-11T00:25:10.934Z,14.53
2022-08-11T00:27:41.199Z,14.53
2022-08-11T00:30:11.480Z,14.54
2022-08-11T00:32:42.692Z,14.51
2022-08-11T00:35:54.098Z,14.47
2022-08-11T00:38:07.571Z,14.45
2022-08-11T00:41:04.596Z,14.43
2022-08-11T00:43:59.692Z,14.41
2022-08-11T00:46:28.577Z,14.38
2022-08-11T00:49:02.765Z,14.35
2022-08-11T00:52:05.479Z,14.34
2022-08-11T00:55:08.006Z,14.33
2022-08-11T00:58:13.717Z,14.28
2022-08-11T01:01:13.559Z,14.25
2022-08-11T01:04:34.543Z,14.22
2022-08-11T01:07:14.580Z,14.20
2022-08-11T01:10:14.271Z,14.19
2022-08-11T01:13:01.462Z,14.17
2022-08-11T01:16:08.108Z,14.17
2022-08-11T01:19:09.249Z,14.19
2022-08-11T01:21:43.365Z,14.21
2022-08-11T01:24:23.893Z,14.20
2022-08-11T01:27:19.641Z,14.20
2022-08-11T01:30:05.363Z,14.21
2022-08-11T01:32:55.547Z,14.21
2022-08-11T01:36:05.449Z,14.21
2022-08-11T01:39:00.784Z,14.19
2022-08-11T01:42:29.012Z,14.14
2022-08-11T01:45:03.580Z,14.08
2022-08-11T01:47:54.410Z,14.03
2022-08-11T01:50:47.736Z,13.98
2022-08-11T01:53:35.883Z,13.97
2022-08-11T01:56:16.362Z,13.96
2022-08-11T01:59:06.001Z,13.94
2022-08-11T02:01:42.918Z,13.92
2022-08-11T02:04:35.366Z,13.89
2022-08-11T02:07:26.458Z,13.88
2022-08-11T02:10:40.724Z,13.86
2022-08-11T02:13:39.906Z,13.84
2022-08-11T02:16:23.155Z,13.84
2022-08-11T02:19:28.602Z,13.84
2022-08-11T02:23:03.782Z,13.85
2022-08-11T02:25:46.988Z,13.85
2022-08-11T02:28:30.914Z,13.81
2022-08-11T02:32:15.530Z,13.79
2022-08-11T02:34:22.138Z,13.80
2022-08-11T02:37:16.206Z,13.79
2022-08-11T02:39:58.216Z,13.77
2022-08-11T02:42:41.551Z,13.74
2022-08-11T02:45:12.741Z,13.76
2022-08-11T02:48:27.593Z,13.78
2022-08-11T02:51:06.589Z,13.79
2022-08-11T02:54:07.235Z,13.78
2022-08-11T02:56:56.897Z,13.75
2022-08-11T02:59:53.471Z,13.75
2022-08-11T03:02:45.963Z,13.74
2022-08-11T03:05:39.240Z,13.73
2022-08-11T03:08:40.066Z,13.71
2022-08-11T03:12:15.098Z,13.70
2022-08-11T03:15:07.354Z,13.66
2022-08-11T03:17:54.277Z,13.63
2022-08-11T03:20:38.213Z,13.59
2022-08-11T03:23:30.491Z,13.56
2022-08-11T03:26:14.776Z,13.53
2022-08-11T03:29:02.110Z,13.48
2022-08-11T03:31:57.011Z,13.44
2022-08-11T03:34:28.290Z,13.39
2022-08-11T03:37:38.725Z,13.31
2022-08-11T03:40:12.983Z,13.25
2022-08-11T03:43:01.212Z,13.20
2022-08-11T03:45:47.240Z,13.17
2022-08-11T03:48:39.697Z,13.14
2022-08-11T03:51:25.222Z,13.09
2022-08-11T03:54:17.273Z,13.05
2022-08-11T03:57:18.110Z,13.03
2022-08-11T04:00:16.857Z,12.99
2022-08-11T04:02:50.972Z,12.93
2022-08-11T04:05:56.820Z,12.90
2022-08-11T04:08:43.328Z,12.88
2022-08-11T04:11:15.192Z,12.86
2022-08-11T04:14:22.369Z,12.85
2022-08-11T04:17:19.631Z,12.86
2022-08-11T04:20:22.234Z,12.83
2022-08-11T04:23:13.367Z,12.82
2022-08-11T04:26:39.403Z,12.86
2022-08-11T04:29:35.963Z,12.90
2022-08-11T04:32:36.252Z,12.94
2022-08-11T04:35:47.336Z,13.01
2022-08-11T04:38:44.917Z,13.09
2022-08-11T04:42:09.546Z,13.18
2022-08-11T04:45:12.140Z,13.32
2022-08-11T04:48:26.049Z,13.44
2022-08-11T04:51:44.164Z,13.59
2022-08-11T04:55:11.203Z,13.80
2022-08-11T04:58:39.213Z,14.03
2022-08-11T05:01:41.501Z,14.23
2022-08-11T05:04:55.857Z,14.39
2022-08-11T05:07:42.881Z,14.58
2022-08-11T05:10:52.459Z,14.73
2022-08-11T05:13:53.097Z,14.96
2022-08-11T05:17:16.801Z,15.16
2022-08-11T05:20:07.587Z,15.39
2022-08-11T05:22:55.739Z,15.60
2022-08-11T05:26:44.461Z,15.81
2022-08-11T05:29:22.610Z,16.05
2022-08-11T05:32:17.915Z,16.27
2022-08-11T05:34:56.456Z,16.44
2022-08-11T05:37:30.521Z,16.61
2022-08-11T05:40:30.301Z,16.74
2022-08-11T05:43:31.561Z,16.90
2022-08-11T05:46:21.910Z,17.05
2022-08-11T05:49:10.057Z,17.16
2022-08-11T05:52:05.719Z,17.27
2022-08-11T05:55:06.110Z,17.39
2022-08-11T05:57:42.376Z,17.50
2022-08-11T06:00:21.001Z,17.59
2022-08-11T06:02:52.285Z,17.67
2022-08-11T06:05:43.295Z,17.76
2022-08-11T06:08:14.744Z,17.88
2022-08-11T06:10:45.035Z,17.99
2022-08-11T06:13:18.233Z,18.10
2022-08-11T06:15:49.727Z,18.21
2022-08-11T06:18:19.437Z,18.31
2022-08-11T06:20:55.059Z,18.41
2022-08-11T06:23:30.518Z,18.50
2022-08-11T06:26:00.513Z,18.62
2022-08-11T06:28:33.015Z,18.70
2022-08-11T06:31:03.766Z,18.82
2022-08-11T06:33:44.089Z,18.91
2022-08-11T06:36:35.925Z,19.02
2022-08-11T06:39:26.718Z,19.11
2022-08-11T06:42:37.170Z,19.18
2022-08-11T06:45:32.535Z,19.31
2022-08-11T06:48:03.174Z,19.41
2022-08-11T06:50:51.633Z,19.48
2022-08-11T06:53:21.348Z,19.55
2022-08-11T06:56:09.476Z,19.67
2022-08-11T06:58:59.620Z,19.82
2022-08-11T07:01:49.300Z,20.01
2022-08-11T07:04:30.538Z,20.18
2022-08-11T07:07:45.566Z,20.35
2022-08-11T07:11:11.284Z,20.40
2022-08-11T07:13:59.967Z,20.49
2022-08-11T07:16:34.878Z,20.76
2022-08-11T07:19:27.729Z,20.98
2022-08-11T07:22:18.031Z,21.20
2022-08-11T07:25:14.515Z,21.37
2022-08-11T07:28:05.657Z,21.56
2022-08-11T07:30:40.203Z,21.82
2022-08-11T07:33:10.820Z,22.11
2022-08-11T07:36:02.095Z,22.26
2022-08-11T07:38:47.501Z,22.30
2022-08-11T07:41:19.459Z,22.41
2022-08-11T07:43:52.277Z,22.65
2022-08-11T07:46:40.514Z,22.81
2022-08-11T07:49:29.721Z,22.90
2022-08-11T07:52:17.043Z,23.04
2022-08-11T07:54:51.144Z,23.10
2022-08-11T07:58:14.059Z,23.24
2022-08-11T08:00:47.162Z,23.37
2022-08-11T08:03:39.521Z,23.42
2022-08-11T08:06:42.139Z,23.53
2022-08-11T08:09:30.781Z,23.75
2022-08-11T08:12:20.901Z,23.93
2022-08-11T08:15:10.301Z,24.09
2022-08-11T08:18:20.425Z,24.16
2022-08-11T08:20:47.897Z,24.26
2022-08-11T08:23:17.785Z,24.29
2022-08-11T08:25:47.102Z,24.41
2022-08-11T08:28:17.848Z,24.61
2022-08-11T08:30:52.729Z,24.75
2022-08-11T08:33:27.615Z,24.88
2022-08-11T08:36:14.895Z,24.91
2022-08-11T08:38:49.742Z,24.95
2022-08-11T08:41:25.067Z,24.99
2022-08-11T08:44:05.941Z,25.07
2022-08-11T08:46:49.725Z,25.15
2022-08-11T08:49:23.638Z,25.18
2022-08-11T08:52:21.638Z,25.33
2022-08-11T08:54:55.837Z,25.52
2022-08-11T08:57:28.341Z,25.47
2022-08-11T08:59:58.312Z,25.46
2022-08-11T09:02:44.112Z,25.51
2022-08-11T09:05:13.539Z,25.75
2022-08-11T09:07:43.490Z,25.94
2022-08-11T09:10:17.599Z,25.95
2022-08-11T09:12:46.431Z,26.13
2022-08-11T09:15:19.894Z,26.14
2022-08-11T09:17:51.872Z,25.96
2022-08-11T09:20:20.257Z,25.86
2022-08-11T09:26:19.286Z,25.95
2022-08-11T09:28:50.209Z,25.61
2022-08-11T09:31:22.051Z,25.41
2022-08-11T09:33:54.238Z,25.39
2022-08-11T09:36:41.863Z,25.50
2022-08-11T09:39:31.165Z,25.91
2022-08-11T09:42:04.359Z,26.22
2022-08-11T09:44:50.240Z,26.10
2022-08-11T09:47:23.695Z,26.07
2022-08-11T09:49:56.284Z,26.14
2022-08-11T09:52:25.294Z,26.25
2022-08-11T09:54:54.994Z,26.47
2022-08-11T09:57:42.293Z,26.40
2022-08-11T10:00:14.354Z,26.16
2022-08-11T10:02:46.373Z,26.33
2022-08-11T10:05:37.845Z,26.56
2022-08-11T10:08:09.417Z,26.46
2022-08-11T10:10:40.033Z,26.62
2022-08-11T10:14:31.090Z,26.58
2022-08-11T10:16:17.632Z,26.51
2022-08-11T10:18:53.843Z,26.71
2022-08-11T10:21:39.242Z,27.02
2022-08-11T10:24:28.133Z,27.21
2022-08-11T10:26:57.519Z,27.08
2022-08-11T10:29:51.255Z,26.86
2022-08-11T10:32:58.902Z,26.55
2022-08-11T10:35:32.769Z,26.15
2022-08-11T10:38:15.965Z,26.00
2022-08-11T10:41:07.244Z,25.88
2022-08-11T10:44:01.850Z,25.75
2022-08-11T10:46:45.896Z,25.55
2022-08-11T10:49:14.762Z,25.26
2022-08-11T10:52:03.198Z,25.02
2022-08-11T10:54:54.494Z,24.77
2022-08-11T10:57:42.161Z,24.66
2022-08-11T11:00:30.442Z,25.22
2022-08-11T11:03:22.895Z,25.82
2022-08-11T11:06:12.840Z,26.54
2022-08-11T11:08:57.741Z,27.05
2022-08-11T11:11:53.252Z,27.26
2022-08-11T11:14:46.756Z,27.73
2022-08-11T11:17:26.631Z,28.19
2022-08-11T11:20:00.273Z,28.42
2022-08-11T11:22:40.074Z,28.42
2022-08-11T11:25:23.572Z,28.22
2022-08-11T11:28:13.654Z,28.26
2022-08-11T11:30:57.467Z,27.96
2022-08-11T11:34:06.787Z,27.55
2022-08-11T11:36:50.810Z,26.95
2022-08-11T11:39:22.883Z,26.52
2022-08-11T11:41:54.911Z,26.16
2022-08-11T11:44:24.665Z,25.92
2022-08-11T11:46:53.980Z,26.10
2022-08-11T11:49:28.613Z,26.41
2022-08-11T11:51:58.734Z,26.70
2022-08-11T11:54:31.505Z,26.01
2022-08-11T11:57:21.687Z,24.99
2022-08-11T12:00:16.209Z,24.20
2022-08-11T12:02:45.266Z,23.42
2022-08-11T12:05:14.952Z,22.92
2022-08-11T12:08:12.515Z,22.75
2022-08-11T12:11:22.514Z,22.53
2022-08-11T12:13:53.382Z,22.08
2022-08-11T12:16:32.773Z,21.72
2022-08-11T12:19:07.929Z,21.36
2022-08-11T12:21:37.747Z,21.01
2022-08-11T12:24:29.440Z,20.71
2022-08-11T12:27:18.667Z,20.47
2022-08-11T12:29:55.372Z,20.27
2022-08-11T12:32:28.644Z,20.09
2022-08-11T12:34:58.015Z,19.93
2022-08-11T12:37:38.287Z,19.85
2022-08-11T12:40:48.792Z,19.82
2022-08-11T12:43:41.358Z,19.85
2022-08-11T12:46:32.114Z,19.85
2022-08-11T12:49:32.346Z,19.98
2022-08-11T12:52:14.473Z,20.14
2022-08-11T12:55:09.747Z,20.29
2022-08-11T12:58:07.317Z,20.49
2022-08-11T13:00:54.723Z,20.70
2022-08-11T13:03:43.019Z,20.96
2022-08-11T13:06:12.005Z,21.27
2022-08-11T13:08:42.326Z,21.38
2022-08-11T13:11:56.300Z,21.45
2022-08-11T13:14:19.970Z,21.60
2022-08-11T13:17:08.040Z,21.72
2022-08-11T13:19:38.340Z,21.85
2022-08-11T13:22:07.584Z,21.99
2022-08-11T13:24:37.090Z,22.20
2022-08-11T13:27:06.327Z,22.48
2022-08-11T13:29:36.113Z,22.70
2022-08-11T13:32:04.822Z,22.81
2022-08-11T13:34:35.767Z,22.80
2022-08-11T13:37:05.662Z,22.57
2022-08-11T13:39:36.157Z,22.52
2022-08-11T13:42:05.919Z,22.73
2022-08-11T13:44:38.468Z,22.90
2022-08-11T13:47:08.946Z,23.09
2022-08-11T13:49:40.481Z,23.18
2022-08-11T13:52:17.730Z,23.20
2022-08-11T13:54:48.421Z,23.25
2022-08-11T13:58:09.071Z,23.22
2022-08-11T14:00:22.535Z,23.23
2022-08-11T14:02:57.235Z,23.29
2022-08-11T14:05:29.448Z,23.32
2022-08-11T14:08:09.717Z,23.40
2022-08-11T14:12:21.552Z,23.33
2022-08-11T14:14:16.740Z,23.32
2022-08-11T14:16:46.663Z,23.26
2022-08-11T14:19:17.391Z,23.27
2022-08-11T14:22:07.932Z,23.24
2022-08-11T14:24:41.661Z,23.20
2022-08-11T14:28:30.469Z,23.12
2022-08-11T14:30:01.968Z,23.02
2022-08-11T14:32:30.340Z,22.93
2022-08-11T14:34:59.129Z,22.89
2022-08-11T14:37:29.278Z,22.98
2022-08-11T14:40:03.302Z,22.93
2022-08-11T14:42:51.798Z,22.81
2022-08-11T14:45:58.183Z,22.73
2022-08-11T14:48:27.856Z,22.64
2022-08-11T14:50:57.095Z,22.60
2022-08-11T14:53:25.830Z,22.58
2022-08-11T14:56:13.167Z,22.52
2022-08-11T14:58:43.635Z,22.51
2022-08-11T15:01:31.258Z,22.51
2022-08-11T15:04:35.348Z,22.52
2022-08-11T15:06:48.994Z,22.54
2022-08-11T15:09:18.510Z,22.53
2022-08-11T15:12:06.026Z,22.57
2022-08-11T15:15:13.875Z,22.59
2022-08-11T15:17:44.141Z,22.56
2022-08-11T15:20:37.120Z,22.52
2022-08-11T15:23:24.623Z,22.47
2022-08-11T15:26:00.847Z,22.44
2022-08-11T15:28:53.531Z,22.41
2022-08-11T15:31:27.876Z,22.36
2022-08-11T15:34:22.925Z,22.31
2022-08-11T15:37:14.079Z,22.27
2022-08-11T15:40:30.125Z,22.23
2022-08-11T15:43:41.776Z,22.19
2022-08-11T15:46:18.455Z,22.11
2022-08-11T15:48:56.298Z,21.95
2022-08-11T15:51:40.857Z,21.75
2022-08-11T15:54:18.767Z,21.57
2022-08-11T15:56:51.850Z,21.38
2022-08-11T15:59:42.821Z,21.21
2022-08-11T16:02:33.999Z,21.04
2022-08-11T16:05:08.598Z,20.84
2022-08-11T16:07:40.402Z,20.66
2022-08-11T16:10:14.016Z,20.50
2022-08-11T16:13:05.293Z,20.34
2022-08-11T16:16:07.906Z,20.22
2022-08-11T16:18:57.129Z,20.15
2022-08-11T16:21:36.007Z,20.08
2022-08-11T16:27:01.641Z,20.04
2022-08-11T16:27:11.084Z,20.03
2022-08-11T16:29:45.806Z,20.04
2022-08-11T16:32:19.103Z,20.07
2022-08-11T16:35:15.931Z,20.10
2022-08-11T16:38:04.521Z,20.10
2022-08-11T16:40:34.949Z,20.10
2022-08-11T16:43:26.533Z,20.10
2022-08-11T16:46:15.626Z,20.12
2022-08-11T16:48:48.407Z,20.12
2022-08-11T16:51:21.184Z,20.15
2022-08-11T16:54:05.264Z,20.12
2022-08-11T16:56:42.584Z,20.06
2022-08-11T16:59:19.930Z,20.00
2022-08-11T17:01:53.774Z,19.92
2022-08-11T17:04:47.487Z,19.81
2022-08-11T17:07:41.657Z,19.67
2022-08-11T17:10:51.288Z,19.53
2022-08-11T17:13:42.551Z,19.35
2022-08-11T17:16:13.878Z,19.21
2022-08-11T17:18:49.381Z,19.09
2022-08-11T17:21:19.646Z,18.96
2022-08-11T17:23:55.312Z,18.79
2022-08-11T17:26:49.865Z,18.60
2022-08-11T17:29:25.025Z,18.39
2022-08-11T17:32:14.247Z,18.24
2022-08-11T17:35:03.664Z,18.08
2022-08-11T17:37:34.846Z,17.97
2022-08-11T17:40:07.240Z,17.88
2022-08-11T17:42:56.608Z,17.82
2022-08-11T17:46:00.718Z,17.78
2022-08-11T17:48:33.019Z,17.75
2022-08-11T17:51:11.690Z,17.75
2022-08-11T17:54:24.001Z,17.73
2022-08-11T17:57:20.088Z,17.73
2022-08-11T17:59:53.736Z,17.72
2022-08-11T18:02:55.541Z,17.72
2022-08-11T18:05:37.566Z,17.69
2022-08-11T18:08:31.162Z,17.67
2022-08-11T18:12:10.744Z,17.64
2022-08-11T18:14:30.675Z,17.60
2022-08-11T18:17:23.050Z,17.54
2022-08-11T18:20:10.102Z,17.51
2022-08-11T18:23:01.915Z,17.48
2022-08-11T18:25:57.999Z,17.44
2022-08-11T18:28:55.175Z,17.38
2022-08-11T18:31:44.540Z,17.36
2022-08-11T18:34:39.772Z,17.33
2022-08-11T18:37:34.380Z,17.31
2022-08-11T18:40:27.815Z,17.26
2022-08-11T18:43:21.028Z,17.19
2022-08-11T18:46:15.499Z,17.13
2022-08-11T18:49:14.948Z,17.10
2022-08-11T18:52:07.082Z,17.05
2022-08-11T18:54:57.411Z,16.98
2022-08-11T18:57:49.511Z,16.92
2022-08-11T19:00:44.248Z,16.87
2022-08-11T19:03:48.806Z,16.81
2022-08-11T19:06:41.047Z,16.73
2022-08-11T19:09:33.038Z,16.68
2022-08-11T19:12:23.557Z,16.64
2022-08-11T19:15:12.137Z,16.60
2022-08-11T19:18:01.543Z,16.55
2022-08-11T19:20:51.511Z,16.53
2022-08-11T19:23:46.612Z,16.49
2022-08-11T19:26:35.280Z,16.45
2022-08-11T19:30:04.753Z,16.40
2022-08-11T19:32:35.315Z,16.36
2022-08-11T19:35:23.587Z,16.29
2022-08-11T19:38:11.519Z,16.21
2022-08-11T19:40:59.788Z,16.14
2022-08-11T19:43:49.609Z,16.07
2022-08-11T19:46:41.793Z,15.97
2022-08-11T19:49:29.684Z,15.90
2022-08-11T19:52:18.690Z,15.84
2022-08-11T19:55:08.162Z,15.76
2022-08-11T19:57:57.374Z,15.69
2022-08-11T20:00:45.303Z,15.62
2022-08-11T20:03:33.617Z,15.54
2022-08-11T20:06:26.681Z,15.47
2022-08-11T20:09:18.858Z,15.40
2022-08-11T20:12:10.477Z,15.34
2022-08-11T20:15:00.730Z,15.27
2022-08-11T20:17:54.449Z,15.19
2022-08-11T20:20:44.757Z,15.11
2022-08-11T20:23:34.955Z,15.03
2022-08-11T20:26:31.885Z,14.97
2022-08-11T20:29:20.936Z,14.88
2022-08-11T20:32:09.737Z,14.79
2022-08-11T20:34:59.562Z,14.71
2022-08-11T20:37:51.248Z,14.64
2022-08-11T20:40:49.046Z,14.58
2022-08-11T20:44:08.493Z,14.54
2022-08-11T20:46:45.667Z,14.47
2022-08-11T20:49:44.885Z,14.41
2022-08-11T20:52:42.229Z,14.36
2022-08-11T20:55:52.142Z,14.30
2022-08-11T20:59:13.467Z,14.26
2022-08-11T21:01:52.177Z,14.19
2022-08-11T21:04:53.898Z,14.15
2022-08-11T21:07:45.039Z,14.11
2022-08-11T21:10:51.215Z,14.04
2022-08-11T21:13:42.895Z,13.98
2022-08-11T21:16:38.825Z,13.94
2022-08-11T21:19:59.920Z,13.86
2022-08-11T21:22:59.615Z,13.79
2022-08-11T21:25:59.421Z,13.74
2022-08-11T21:28:49.274Z,13.68
2022-08-11T21:31:37.252Z,13.61
2022-08-11T21:34:27.468Z,13.56
2022-08-11T21:37:16.591Z,13.53
2022-08-11T21:40:05.861Z,13.47
2022-08-11T21:42:56.565Z,13.43
2022-08-11T21:45:45.646Z,13.36
2022-08-11T21:48:33.677Z,13.30
2022-08-11T21:51:20.821Z,13.27
2022-08-11T21:54:08.493Z,13.22
2022-08-11T21:56:57.792Z,13.14
2022-08-11T22:00:11.723Z,13.09
2022-08-11T22:03:00.819Z,13.05
2022-08-11T22:05:53.078Z,13.02
2022-08-11T22:08:42.066Z,12.96
2022-08-11T22:11:32.107Z,12.92
2022-08-11T22:14:23.475Z,12.90
2022-08-11T22:17:11.056Z,12.85
2022-08-11T22:20:01.329Z,12.81
2022-08-11T22:22:53.082Z,12.79
2022-08-11T22:25:51.675Z,12.77
2022-08-11T22:28:41.972Z,12.76
2022-08-11T22:31:30.370Z,12.73
2022-08-11T22:34:17.491Z,12.70
2022-08-11T22:37:06.616Z,12.68
2022-08-11T22:40:02.138Z,12.67
2022-08-11T22:42:51.286Z,12.65
2022-08-11T22:45:39.263Z,12.63
2022-08-11T22:48:28.490Z,12.62
2022-08-11T22:51:17.587Z,12.62
2022-08-11T22:54:06.403Z,12.58
2022-08-11T22:56:54.125Z,12.56
2022-08-11T22:59:42.368Z,12.52
2022-08-11T23:02:29.753Z,12.49
2022-08-11T23:05:18.052Z,12.47
2022-08-11T23:08:06.206Z,12.44
2022-08-11T23:10:53.268Z,12.41
2022-08-11T23:13:41.084Z,12.40
2022-08-11T23:16:28.576Z,12.36
2022-08-11T23:20:00.368Z,12.33
2022-08-11T23:22:24.029Z,12.29
2022-08-11T23:25:26.634Z,12.22
2022-08-11T23:28:17.027Z,12.20
2022-08-11T23:31:04.597Z,12.17
2022-08-11T23:33:55.871Z,12.15
2022-08-11T23:36:47.435Z,12.11
2022-08-11T23:39:35.943Z,12.07
2022-08-11T23:42:24.054Z,12.05
2022-08-11T23:45:11.356Z,12.01
2022-08-11T23:48:00.467Z,11.99
2022-08-11T23:50:48.166Z,11.97
2022-08-11T23:53:36.970Z,11.95
2022-08-11T23:56:24.635Z,11.95
2022-08-11T23:59:16.758Z,11.93
